CheckWX is a tool to help pilots better visualize weather data.  It is not intended as a substitute for an official pre-flight weather briefing.

15:12:59 UTC

RJSA METAR
Aomori Airport
Aomori, Japan
Current

3 hours ago

RJSA 221200Z VRB01KT 9999 FEW020 SCT070 08/07 Q1017
Observed
Oct-22 @ 12:00 UTC
Wind
  • Variable at 1 KTS
Visibility
10,000+ meters
Flight Rules
VFR
Cloud Levels
  • Few at 2,000' AGL
  • Scattered at 7,000' AGL
Temperature
C / 46°F
Dewpoint
C / 45°F
Humidity
93%
Altimeter
30.03" Hg
Pressure
1016.92 hPa
Previous

4 hours ago

RJSA 221100Z VRB02KT 9999 FEW020 SCT080 10/09 Q1017
Observed
Oct-22 @ 11:00 UTC
Wind
  • Variable at 2 KTS
Visibility
10,000+ meters
Flight Rules
VFR
Cloud Levels
  • Few at 2,000' AGL
  • Scattered at 8,000' AGL
Temperature
10°C / 50°F
Dewpoint
C / 48°F
Humidity
94%
Altimeter
30.03" Hg
Pressure
1016.92 hPa
Previous

5 hours ago

RJSA 221000Z VRB01KT 9999 FEW020 SCT060 BKN080 10/09 Q1017
Observed
Oct-22 @ 10:00 UTC
Wind
  • Variable at 1 KTS
Visibility
10,000+ meters
Flight Rules
VFR
Cloud Levels
  • Few at 2,000' AGL
  • Scattered at 6,000' AGL
  • Broken at 8,000' AGL
Temperature
10°C / 50°F
Dewpoint
C / 48°F
Humidity
94%
Altimeter
30.03" Hg
Pressure
1016.92 hPa